Time;durP1;ratioP1;P1;durP2;ratioP2;P2;SDS_P1;SDS_P2;PMS_P1;PMS_P2;Temp;Humidity;BMP_temperature;BMP_pressure;BME280_temperature;BME280_humidity;BME280_pressure;Samples;Min_cycle;Max_cycle;Signal;HPM_P1;HPM_P2
2023/08/31 00:01:14;;;;;;;;;;;;;;;;;;4969721;28;19949;-68
2023/08/31 00:03:39;;;;;;;;;;;;;;;;;;4988797;28;19922;-69
2023/08/31 00:06:07;;;;;;;;;;;;;;;;;;4969638;28;20008;-68
2023/08/31 00:08:32;;;;;;;;;;;;;;;;;;4970806;28;19972;-68
2023/08/31 00:10:58;;;;;;;;;;;;;;;;;;4964479;28;19921;-68
2023/08/31 00:13:24;;;;;;;;;;;;;;;;;;4985837;28;19965;-68
2023/08/31 00:15:49;;;;;;;;;;;;;;;;;;4948772;28;21913;-69
2023/08/31 00:18:16;;;;;;;;;;;;;;;;;;4970322;28;19924;-69
2023/08/31 00:20:41;;;;;;;;;;;;;;;;;;4969409;28;19925;-69
2023/08/31 00:23:07;;;;;;;;;;;;;;;;;;4969205;28;19922;-69
2023/08/31 00:25:34;;;;;;;;;;;;;;;;;;4986723;28;19918;-69
2023/08/31 00:28:04;;;;;;;;;;;;;;;;;;4953287;28;19979;-68
2023/08/31 00:30:30;;;;;;;;;;;;;;;;;;4986521;28;20052;-69
2023/08/31 00:33:00;;;;;;;;;;;;;;;;;;4981134;28;19945;-69
2023/08/31 00:35:34;;;;;;;;;;;;;;;;;;4983778;28;20010;-69
2023/08/31 00:38:00;;;;;;;;;;;;;;;;;;4987393;28;19921;-69
2023/08/31 00:40:25;;;;;;;;;;;;;;;;;;4986303;28;20007;-68
2023/08/31 00:42:51;;;;;;;;;;;;;;;;;;4987878;28;20286;-69
2023/08/31 00:45:17;;;;;;;;;;;;;;;;;;4952589;28;20043;-69
2023/08/31 00:47:42;;;;;;;;;;;;;;;;;;4954850;28;19921;-69
2023/08/31 00:50:08;;;;;;;;;;;;;;;;;;4967501;28;19979;-69
2023/08/31 00:52:33;;;;;;;;;;;;;;;;;;4953979;28;19921;-68
2023/08/31 00:54:59;;;;;;;;;;;;;;;;;;4969121;28;19936;-68
2023/08/31 00:57:26;;;;;;;;;;;;;;;;;;4952720;28;19941;-68
2023/08/31 00:59:51;;;;;;;;;;;;;;;;;;4968816;28;19921;-69
2023/08/31 01:02:16;;;;;;;;;;;;;;;;;;4950968;28;20684;-69
2023/08/31 01:04:42;;;;;;;;;;;;;;;;;;4987593;28;19921;-69
2023/08/31 01:07:08;;;;;;;;;;;;;;;;;;4984359;28;19937;-69
2023/08/31 01:09:35;;;;;;;;;;;;;;;;;;4964872;28;19970;-70
2023/08/31 01:12:00;;;;;;;;;;;;;;;;;;4964702;28;19937;-69
2023/08/31 01:14:25;;;;;;;;;;;;;;;;;;4964283;28;19917;-68
2023/08/31 01:16:51;;;;;;;;;;;;;;;;;;4965954;28;20019;-70
2023/08/31 01:19:19;;;;;;;;;;;;;;;;;;4947956;28;20008;-69
2023/08/31 01:21:44;;;;;;;;;;;;;;;;;;4983948;28;20047;-69
2023/08/31 01:24:11;;;;;;;;;;;;;;;;;;4984093;28;19925;-69
2023/08/31 01:26:36;;;;;;;;;;;;;;;;;;4963137;28;19957;-69
2023/08/31 01:29:02;;;;;;;;;;;;;;;;;;4964961;28;19921;-69
2023/08/31 01:31:27;;;;;;;;;;;;;;;;;;4982990;28;19930;-69
2023/08/31 01:33:52;;;;;;;;;;;;;;;;;;4949524;28;20381;-69
2023/08/31 01:36:21;;;;;;;;;;;;;;;;;;4966974;28;19926;-68
2023/08/31 01:38:47;;;;;;;;;;;;;;;;;;4967205;28;19932;-68
2023/08/31 01:41:15;;;;;;;;;;;;;;;;;;4965641;28;19979;-68
2023/08/31 01:43:40;;;;;;;;;;;;;;;;;;4984191;28;20024;-68
2023/08/31 01:46:05;;;;;;;;;;;;;;;;;;4968135;28;19928;-68
2023/08/31 01:48:34;;;;;;;;;;;;;;;;;;4951965;28;19963;-68
2023/08/31 01:51:02;;;;;;;;;;;;;;;;;;4953682;28;19928;-68
2023/08/31 01:53:27;;;;;;;;;;;;;;;;;;4967979;28;19922;-69
2023/08/31 01:55:52;;;;;;;;;;;;;;;;;;4984765;28;20239;-68
2023/08/31 01:58:18;;;;;;;;;;;;;;;;;;4965925;28;19933;-69
2023/08/31 02:00:44;;;;;;;;;;;;;;;;;;4985117;28;19922;-68
2023/08/31 02:03:10;;;;;;;;;;;;;;;;;;4968922;28;20384;-68
2023/08/31 02:05:36;;;;;;;;;;;;;;;;;;4985301;28;20003;-68
2023/08/31 02:08:01;;;;;;;;;;;;;;;;;;4967815;28;20000;-67
2023/08/31 02:10:29;;;;;;;;;;;;;;;;;;4967682;28;19922;-67
2023/08/31 02:12:57;;;;;;;;;;;;;;;;;;4949703;28;20040;-68
2023/08/31 02:15:23;;;;;;;;;;;;;;;;;;4984760;28;20389;-68
2023/08/31 02:17:48;;;;;;;;;;;;;;;;;;4965476;28;20831;-68
2023/08/31 02:20:14;;;;;;;;;;;;;;;;;;4965066;28;19960;-68
2023/08/31 02:22:39;;;;;;;;;;;;;;;;;;4968460;28;21762;-68
2023/08/31 02:25:05;;;;;;;;;;;;;;;;;;4983552;28;20734;-67
2023/08/31 02:27:30;;;;;;;;;;;;;;;;;;4986715;28;20039;-68
2023/08/31 02:29:58;;;;;;;;;;;;;;;;;;4984929;28;19932;-68
2023/08/31 02:32:23;;;;;;;;;;;;;;;;;;4966233;28;20326;-68
2023/08/31 02:34:51;;;;;;;;;;;;;;;;;;4966957;28;19921;-68
2023/08/31 02:37:17;;;;;;;;;;;;;;;;;;4968570;28;20405;-68
2023/08/31 02:39:42;;;;;;;;;;;;;;;;;;4978214;28;20320;-68
2023/08/31 02:42:08;;;;;;;;;;;;;;;;;;4952018;28;19921;-68
2023/08/31 02:44:33;;;;;;;;;;;;;;;;;;4949632;28;20016;-68
2023/08/31 02:47:01;;;;;;;;;;;;;;;;;;4951492;28;19932;-68
2023/08/31 02:49:27;;;;;;;;;;;;;;;;;;4987045;28;19917;-67
2023/08/31 02:51:53;;;;;;;;;;;;;;;;;;4972693;28;19921;-68
2023/08/31 02:54:19;;;;;;;;;;;;;;;;;;4971441;28;20356;-68
2023/08/31 02:56:44;;;;;;;;;;;;;;;;;;4988017;28;19925;-68
2023/08/31 02:59:10;;;;;;;;;;;;;;;;;;4971493;28;19921;-68
2023/08/31 03:01:36;;;;;;;;;;;;;;;;;;4955336;28;20300;-68
2023/08/31 03:04:01;;;;;;;;;;;;;;;;;;4970946;28;19921;-68
2023/08/31 03:06:26;;;;;;;;;;;;;;;;;;4956035;28;19921;-68
2023/08/31 03:08:52;;;;;;;;;;;;;;;;;;4969544;28;21317;-68
2023/08/31 03:11:17;;;;;;;;;;;;;;;;;;4968259;28;20007;-68
2023/08/31 03:13:43;;;;;;;;;;;;;;;;;;4956598;28;19917;-68
2023/08/31 03:16:08;;;;;;;;;;;;;;;;;;4953846;28;19943;-67
2023/08/31 03:18:34;;;;;;;;;;;;;;;;;;4950845;28;20329;-67
2023/08/31 03:20:59;;;;;;;;;;;;;;;;;;4952088;28;19929;-68
2023/08/31 03:23:24;;;;;;;;;;;;;;;;;;4967959;28;20934;-68
2023/08/31 03:25:50;;;;;;;;;;;;;;;;;;4969338;28;19957;-67
2023/08/31 03:28:16;;;;;;;;;;;;;;;;;;4952371;28;20330;-68
2023/08/31 03:30:41;;;;;;;;;;;;;;;;;;4964890;28;19996;-68
2023/08/31 03:33:07;;;;;;;;;;;;;;;;;;4951145;28;19922;-68
2023/08/31 03:35:33;;;;;;;;;;;;;;;;;;4951005;28;19918;-67
2023/08/31 03:37:58;;;;;;;;;;;;;;;;;;4951921;28;20478;-67
2023/08/31 03:40:23;;;;;;;;;;;;;;;;;;4966254;28;19922;-68
2023/08/31 03:42:49;;;;;;;;;;;;;;;;;;4966444;28;20428;-68
2023/08/31 03:45:14;;;;;;;;;;;;;;;;;;4965171;28;19953;-68
2023/08/31 03:47:40;;;;;;;;;;;;;;;;;;4949184;28;19947;-67
2023/08/31 03:50:05;;;;;;;;;;;;;;;;;;4950977;28;19918;-67
2023/08/31 03:52:30;;;;;;;;;;;;;;;;;;4968181;28;19921;-67
2023/08/31 03:54:56;;;;;;;;;;;;;;;;;;4967240;28;20040;-68
2023/08/31 03:57:21;;;;;;;;;;;;;;;;;;4968546;28;21808;-68
2023/08/31 03:59:46;;;;;;;;;;;;;;;;;;4963290;28;20286;-68
2023/08/31 04:02:12;;;;;;;;;;;;;;;;;;4968459;28;20385;-68
2023/08/31 04:04:37;;;;;;;;;;;;;;;;;;4948701;28;19929;-67
2023/08/31 04:07:03;;;;;;;;;;;;;;;;;;4967864;28;19924;-67
2023/08/31 04:09:30;;;;;;;;;;;;;;;;;;4966865;28;20060;-67
2023/08/31 04:11:55;;;;;;;;;;;;;;;;;;4967387;28;19924;-67
2023/08/31 04:14:20;;;;;;;;;;;;;;;;;;4945925;28;19917;-67
2023/08/31 04:16:49;;;;;;;;;;;;;;;;;;4965982;28;19964;-68
2023/08/31 04:19:14;;;;;;;;;;;;;;;;;;4967742;28;19922;-68
2023/08/31 04:21:40;;;;;;;;;;;;;;;;;;4964587;28;20392;-68
2023/08/31 04:24:05;;;;;;;;;;;;;;;;;;4968329;28;19929;-67
2023/08/31 04:26:30;;;;;;;;;;;;;;;;;;4947709;28;19929;-68
2023/08/31 04:28:56;;;;;;;;;;;;;;;;;;4969213;28;19921;-68
2023/08/31 04:31:22;;;;;;;;;;;;;;;;;;4966432;28;19946;-68
2023/08/31 04:33:48;;;;;;;;;;;;;;;;;;4963073;28;20002;-68
2023/08/31 04:36:13;;;;;;;;;;;;;;;;;;4966306;28;19921;-68
2023/08/31 04:38:39;;;;;;;;;;;;;;;;;;4963584;28;20436;-68
2023/08/31 04:41:05;;;;;;;;;;;;;;;;;;4963166;28;20688;-68
2023/08/31 04:43:30;;;;;;;;;;;;;;;;;;4963599;28;20428;-68
2023/08/31 04:45:56;;;;;;;;;;;;;;;;;;4978349;28;19918;-67
2023/08/31 04:48:21;;;;;;;;;;;;;;;;;;4965357;28;19922;-67
2023/08/31 04:50:46;;;;;;;;;;;;;;;;;;4946853;28;19924;-67
2023/08/31 04:53:12;;;;;;;;;;;;;;;;;;4948486;28;19957;-68
2023/08/31 04:55:37;;;;;;;;;;;;;;;;;;4962803;28;20513;-68
2023/08/31 04:58:03;;;;;;;;;;;;;;;;;;4951271;28;20285;-67
2023/08/31 05:00:28;;;;;;;;;;;;;;;;;;4945672;28;19922;-67
2023/08/31 05:02:54;;;;;;;;;;;;;;;;;;4965572;28;19918;-68
2023/08/31 05:05:21;;;;;;;;;;;;;;;;;;4949553;28;19922;-68
2023/08/31 05:07:46;;;;;;;;;;;;;;;;;;4950403;28;19952;-68
2023/08/31 05:10:12;;;;;;;;;;;;;;;;;;4966110;28;19924;-67
2023/08/31 05:12:37;;;;;;;;;;;;;;;;;;4960129;28;19929;-68
2023/08/31 05:15:05;;;;;;;;;;;;;;;;;;4965229;28;19972;-67
2023/08/31 05:17:31;;;;;;;;;;;;;;;;;;4963116;28;19965;-68
2023/08/31 05:19:56;;;;;;;;;;;;;;;;;;4966038;28;20072;-67
2023/08/31 05:22:22;;;;;;;;;;;;;;;;;;4942924;28;19929;-67
2023/08/31 05:24:47;;;;;;;;;;;;;;;;;;4966658;28;19988;-67
2023/08/31 05:27:13;;;;;;;;;;;;;;;;;;4965667;28;20515;-67
2023/08/31 05:29:38;;;;;;;;;;;;;;;;;;4965199;28;20749;-67
2023/08/31 05:32:03;;;;;;;;;;;;;;;;;;4963847;28;19957;-67
2023/08/31 05:34:30;;;;;;;;;;;;;;;;;;4963646;28;19949;-67
2023/08/31 05:36:55;;;;;;;;;;;;;;;;;;4965021;28;19984;-67
2023/08/31 05:39:21;;;;;;;;;;;;;;;;;;4966085;28;20045;-67
2023/08/31 05:41:46;;;;;;;;;;;;;;;;;;4959882;28;19973;-67
2023/08/31 05:44:14;;;;;;;;;;;;;;;;;;4975058;28;19921;-67
2023/08/31 05:46:40;;;;;;;;;;;;;;;;;;4945831;28;19971;-67
2023/08/31 05:49:07;;;;;;;;;;;;;;;;;;4963739;28;19922;-67
2023/08/31 05:51:32;;;;;;;;;;;;;;;;;;4944643;28;19922;-66
2023/08/31 05:53:58;;;;;;;;;;;;;;;;;;4965558;28;19925;-67
2023/08/31 05:56:23;;;;;;;;;;;;;;;;;;4947323;28;21956;-68
2023/08/31 05:58:50;;;;;;;;;;;;;;;;;;4962139;28;20394;-67
2023/08/31 06:01:15;;;;;;;;;;;;;;;;;;4964572;28;20424;-67
2023/08/31 06:03:40;;;;;;;;;;;;;;;;;;4962219;28;20004;-67
2023/08/31 06:06:06;;;;;;;;;;;;;;;;;;4965013;28;19922;-67
2023/08/31 06:08:31;;;;;;;;;;;;;;;;;;4961089;28;19959;-67
2023/08/31 06:10:56;;;;;;;;;;;;;;;;;;4946673;28;19921;-67
2023/08/31 06:13:22;;;;;;;;;;;;;;;;;;4982223;28;19921;-67
2023/08/31 06:15:47;;;;;;;;;;;;;;;;;;4947045;28;20001;-66
2023/08/31 06:18:13;;;;;;;;;;;;;;;;;;4967389;28;19921;-67
2023/08/31 06:20:38;;;;;;;;;;;;;;;;;;4947918;28;19930;-67
2023/08/31 06:23:04;;;;;;;;;;;;;;;;;;4965808;28;20407;-67
2023/08/31 06:25:29;;;;;;;;;;;;;;;;;;4969538;28;19971;-68
2023/08/31 06:27:54;;;;;;;;;;;;;;;;;;4971377;28;20298;-67
2023/08/31 06:30:20;;;;;;;;;;;;;;;;;;4969570;28;19924;-67
2023/08/31 06:32:45;;;;;;;;;;;;;;;;;;4971885;28;19944;-68
2023/08/31 06:35:13;;;;;;;;;;;;;;;;;;4971196;28;20046;-67
2023/08/31 06:37:39;;;;;;;;;;;;;;;;;;4967969;28;19926;-67
2023/08/31 06:40:04;;;;;;;;;;;;;;;;;;4985633;28;20118;-69
2023/08/31 06:42:30;;;;;;;;;;;;;;;;;;4953728;28;19917;-68
2023/08/31 06:44:56;;;;;;;;;;;;;;;;;;4968224;28;20912;-68
2023/08/31 06:47:22;;;;;;;;;;;;;;;;;;4970536;28;20469;-69
2023/08/31 06:49:47;;;;;;;;;;;;;;;;;;4970339;28;19922;-68
2023/08/31 06:52:13;;;;;;;;;;;;;;;;;;4970533;28;19927;-71
2023/08/31 06:54:38;;;;;;;;;;;;;;;;;;4968155;28;20305;-68
2023/08/31 06:57:06;;;;;;;;;;;;;;;;;;4968640;28;20328;-67
2023/08/31 06:59:31;;;;;;;;;;;;;;;;;;4969469;28;19922;-67
2023/08/31 07:01:57;;;;;;;;;;;;;;;;;;4953572;28;19917;-68
2023/08/31 07:04:22;;;;;;;;;;;;;;;;;;4952466;28;19921;-67
2023/08/31 07:06:47;;;;;;;;;;;;;;;;;;4969432;28;19922;-68
2023/08/31 07:09:13;;;;;;;;;;;;;;;;;;4966226;28;19918;-68
2023/08/31 07:11:41;;;;;;;;;;;;;;;;;;4981014;28;19949;-69
2023/08/31 07:14:06;;;;;;;;;;;;;;;;;;4970643;28;19952;-69
2023/08/31 07:16:32;;;;;;;;;;;;;;;;;;4952140;28;19925;-69
2023/08/31 07:18:58;;;;;;;;;;;;;;;;;;4953446;28;19917;-67
2023/08/31 07:21:23;;;;;;;;;;;;;;;;;;4982783;28;19940;-67
2023/08/31 07:23:51;;;;;;;;;;;;;;;;;;4966997;28;19929;-68
2023/08/31 07:26:17;;;;;;;;;;;;;;;;;;4969187;28;20015;-68
2023/08/31 07:28:43;;;;;;;;;;;;;;;;;;4949982;28;19922;-71
2023/08/31 07:31:08;;;;;;;;;;;;;;;;;;4986005;28;19922;-68
2023/08/31 07:33:37;;;;;;;;;;;;;;;;;;4968567;28;20416;-69
2023/08/31 07:36:03;;;;;;;;;;;;;;;;;;4948187;28;20377;-68
2023/08/31 07:38:28;;;;;;;;;;;;;;;;;;4969840;28;19945;-68
2023/08/31 07:40:53;;;;;;;;;;;;;;;;;;4964750;28;20385;-69
2023/08/31 07:43:19;;;;;;;;;;;;;;;;;;4967256;28;19921;-68
2023/08/31 07:45:44;;;;;;;;;;;;;;;;;;4969345;28;20300;-68
2023/08/31 07:48:10;;;;;;;;;;;;;;;;;;4952122;28;19921;-67
2023/08/31 07:50:35;;;;;;;;;;;;;;;;;;4951459;28;19973;-66
2023/08/31 07:53:03;;;;;;;;;;;;;;;;;;4951154;28;19924;-67
2023/08/31 07:55:36;;;;;;;;;;;;;;;;;;4951734;28;19922;-66
2023/08/31 07:58:01;;;;;;;;;;;;;;;;;;4967300;28;19926;-67
2023/08/31 08:00:27;;;;;;;;;;;;;;;;;;4965653;28;20900;-67
2023/08/31 08:02:52;;;;;;;;;;;;;;;;;;4969291;28;19921;-70
2023/08/31 08:05:17;;;;;;;;;;;;;;;;;;4969674;28;19922;-68
2023/08/31 08:07:43;;;;;;;;;;;;;;;;;;4969289;28;20321;-68
2023/08/31 08:10:09;;;;;;;;;;;;;;;;;;4950767;28;19921;-68
2023/08/31 08:12:34;;;;;;;;;;;;;;;;;;4970162;28;21948;-68
2023/08/31 08:15:00;;;;;;;;;;;;;;;;;;4969249;28;19922;-69
2023/08/31 08:17:25;;;;;;;;;;;;;;;;;;4969279;28;19922;-69
2023/08/31 08:19:53;;;;;;;;;;;;;;;;;;4967474;28;19922;-67
2023/08/31 08:22:19;;;;;;;;;;;;;;;;;;4989283;28;19983;-73
2023/08/31 08:24:44;;;;;;;;;;;;;;;;;;4968430;28;20040;-69
2023/08/31 08:27:12;;;;;;;;;;;;;;;;;;4990690;28;19948;-70
2023/08/31 08:29:37;;;;;;;;;;;;;;;;;;4970584;28;19921;-71
2023/08/31 08:32:03;;;;;;;;;;;;;;;;;;4968367;28;19971;-72
2023/08/31 08:34:28;;;;;;;;;;;;;;;;;;4969889;28;19921;-75
2023/08/31 08:36:54;;;;;;;;;;;;;;;;;;4971609;28;19951;-73
2023/08/31 08:39:19;;;;;;;;;;;;;;;;;;4989666;28;20864;-72
2023/08/31 08:41:47;;;;;;;;;;;;;;;;;;4953418;28;19979;-75
2023/08/31 08:44:13;;;;;;;;;;;;;;;;;;4952258;28;19918;-71
2023/08/31 08:46:39;;;;;;;;;;;;;;;;;;4968705;28;20004;-70
2023/08/31 08:49:07;;;;;;;;;;;;;;;;;;4985401;28;19932;-70
2023/08/31 08:51:35;;;;;;;;;;;;;;;;;;4972670;28;20692;-72
2023/08/31 08:54:00;;;;;;;;;;;;;;;;;;4971589;28;19971;-71
2023/08/31 08:56:26;;;;;;;;;;;;;;;;;;4969224;28;20294;-71
2023/08/31 08:58:51;;;;;;;;;;;;;;;;;;4986993;28;19959;-72
2023/08/31 09:01:22;;;;;;;;;;;;;;;;;;4970428;28;19932;-73
2023/08/31 09:03:48;;;;;;;;;;;;;;;;;;4988144;28;19929;-70
2023/08/31 09:06:13;;;;;;;;;;;;;;;;;;4988178;28;19921;-72
2023/08/31 09:08:38;;;;;;;;;;;;;;;;;;4987366;28;19922;-74
2023/08/31 09:11:06;;;;;;;;;;;;;;;;;;4970536;28;19917;-73
2023/08/31 09:13:34;;;;;;;;;;;;;;;;;;4985185;28;22132;-72
2023/08/31 09:15:59;;;;;;;;;;;;;;;;;;4955115;28;19992;-71
2023/08/31 09:18:27;;;;;;;;;;;;;;;;;;4969624;28;20034;-72
2023/08/31 09:20:53;;;;;;;;;;;;;;;;;;4971630;28;20480;-77
2023/08/31 09:23:18;;;;;;;;;;;;;;;;;;4969090;28;21509;-78
2023/08/31 09:25:44;;;;;;;;;;;;;;;;;;4969873;28;19921;-75
2023/08/31 09:28:09;;;;;;;;;;;;;;;;;;4984750;28;20369;-76
2023/08/31 09:30:37;;;;;;;;;;;;;;;;;;4962148;28;20000;-72
2023/08/31 09:33:05;;;;;;;;;;;;;;;;;;4955080;28;22336;-72
2023/08/31 09:35:31;;;;;;;;;;;;;;;;;;4954758;28;19997;-76
2023/08/31 09:37:57;;;;;;;;;;;;;;;;;;4989643;28;19925;-71
2023/08/31 09:40:25;;;;;;;;;;;;;;;;;;4988496;28;19921;-71
2023/08/31 09:42:50;;;;;;;;;;;;;;;;;;4953898;28;19925;-71
2023/08/31 09:45:16;;;;;;;;;;;;;;;;;;4986061;28;19924;-71
2023/08/31 09:47:41;;;;;;;;;;;;;;;;;;4982265;28;19922;-69
2023/08/31 09:50:09;;;;;;;;;;;;;;;;;;4952127;28;19917;-70
2023/08/31 09:52:37;;;;;;;;;;;;;;;;;;4954630;28;19921;-70
2023/08/31 09:55:03;;;;;;;;;;;;;;;;;;4951550;28;19926;-71
2023/08/31 09:57:31;;;;;;;;;;;;;;;;;;4988082;28;20040;-69
2023/08/31 09:59:57;;;;;;;;;;;;;;;;;;4972515;28;19928;-72
2023/08/31 10:02:22;;;;;;;;;;;;;;;;;;4956302;28;19917;-73
2023/08/31 10:04:48;;;;;;;;;;;;;;;;;;4989158;28;19932;-69
2023/08/31 10:07:13;;;;;;;;;;;;;;;;;;4957134;28;19917;-70
2023/08/31 10:09:42;;;;;;;;;;;;;;;;;;4988988;28;19925;-71
2023/08/31 10:12:07;;;;;;;;;;;;;;;;;;4967256;28;19917;-71
2023/08/31 10:14:33;;;;;;;;;;;;;;;;;;4956037;28;19918;-72
2023/08/31 10:16:58;;;;;;;;;;;;;;;;;;4956706;28;19976;-72
2023/08/31 10:19:24;;;;;;;;;;;;;;;;;;4987959;28;19921;-73
2023/08/31 10:21:49;;;;;;;;;;;;;;;;;;4972572;28;20023;-69
2023/08/31 10:24:15;;;;;;;;;;;;;;;;;;4972490;28;19917;-70
2023/08/31 10:26:40;;;;;;;;;;;;;;;;;;4988792;28;19929;-70
2023/08/31 10:29:05;;;;;;;;;;;;;;;;;;4971911;28;20732;-69
2023/08/31 10:31:31;;;;;;;;;;;;;;;;;;4967457;28;20636;-69
2023/08/31 10:33:59;;;;;;;;;;;;;;;;;;4970949;28;19956;-72
2023/08/31 10:36:27;;;;;;;;;;;;;;;;;;4973600;28;19931;-71
2023/08/31 10:38:55;;;;;;;;;;;;;;;;;;4972545;28;19929;-72
2023/08/31 10:41:20;;;;;;;;;;;;;;;;;;4973195;28;19928;-72
2023/08/31 10:43:46;;;;;;;;;;;;;;;;;;4972407;28;20293;-72
2023/08/31 10:46:11;;;;;;;;;;;;;;;;;;4953960;28;19917;-76
2023/08/31 10:48:36;;;;;;;;;;;;;;;;;;4988207;28;20396;-70
2023/08/31 10:51:03;;;;;;;;;;;;;;;;;;4971796;28;19944;-68
2023/08/31 10:53:28;;;;;;;;;;;;;;;;;;4989724;28;20957;-71
2023/08/31 10:55:54;;;;;;;;;;;;;;;;;;4956210;28;19967;-72
2023/08/31 10:58:21;;;;;;;;;;;;;;;;;;4988596;28;20016;-74
2023/08/31 11:00:49;;;;;;;;;;;;;;;;;;4988973;28;21356;-70
2023/08/31 11:03:17;;;;;;;;;;;;;;;;;;4990402;28;20024;-71
2023/08/31 11:05:43;;;;;;;;;;;;;;;;;;4983665;28;19918;-74
2023/08/31 11:08:08;;;;;;;;;;;;;;;;;;4973004;28;19949;-73
2023/08/31 11:10:36;;;;;;;;;;;;;;;;;;4954104;28;21236;-72
2023/08/31 11:13:02;;;;;;;;;;;;;;;;;;4970510;28;19917;-70
2023/08/31 11:15:30;;;;;;;;;;;;;;;;;;4955886;28;20765;-74
2023/08/31 11:17:55;;;;;;;;;;;;;;;;;;4990363;28;20004;-72
2023/08/31 11:20:20;;;;;;;;;;;;;;;;;;4971585;28;19933;-72
2023/08/31 11:22:45;;;;;;;;;;;;;;;;;;4990452;28;19925;-71
2023/08/31 11:25:11;;;;;;;;;;;;;;;;;;4972783;28;20011;-71
2023/08/31 11:27:37;;;;;;;;;;;;;;;;;;4969999;28;20715;-70
2023/08/31 11:30:05;;;;;;;;;;;;;;;;;;4990270;28;20508;-68
2023/08/31 11:32:31;;;;;;;;;;;;;;;;;;4972852;28;19933;-74
2023/08/31 11:35:03;;;;;;;;;;;;;;;;;;4970565;28;19956;-71
2023/08/31 11:37:29;;;;;;;;;;;;;;;;;;4954450;28;19928;-71
2023/08/31 11:39:54;;;;;;;;;;;;;;;;;;4970627;28;20896;-72
2023/08/31 11:42:20;;;;;;;;;;;;;;;;;;4989528;28;19952;-71
2023/08/31 11:44:45;;;;;;;;;;;;;;;;;;4969826;28;19964;-69
2023/08/31 11:47:11;;;;;;;;;;;;;;;;;;4970872;28;20025;-68
2023/08/31 11:49:36;;;;;;;;;;;;;;;;;;4956204;28;20906;-73
2023/08/31 11:52:03;;;;;;;;;;;;;;;;;;4954280;28;19952;-77
2023/08/31 11:54:28;;;;;;;;;;;;;;;;;;4985090;28;21130;-77
2023/08/31 11:56:54;;;;;;;;;;;;;;;;;;4969868;28;19921;-78
2023/08/31 11:59:19;;;;;;;;;;;;;;;;;;4971160;28;20736;-74
2023/08/31 12:01:45;;;;;;;;;;;;;;;;;;4968560;28;19917;-75
2023/08/31 12:04:10;;;;;;;;;;;;;;;;;;4988906;28;20911;-76
2023/08/31 12:06:36;;;;;;;;;;;;;;;;;;4955141;28;19952;-76
2023/08/31 12:09:01;;;;;;;;;;;;;;;;;;4971191;28;21291;-71
2023/08/31 12:11:26;;;;;;;;;;;;;;;;;;4971010;28;19932;-69
2023/08/31 12:13:52;;;;;;;;;;;;;;;;;;4989113;28;20995;-74
2023/08/31 12:16:17;;;;;;;;;;;;;;;;;;4971555;28;19952;-71
2023/08/31 12:18:42;;;;;;;;;;;;;;;;;;4954955;28;19924;-72
2023/08/31 12:21:08;;;;;;;;;;;;;;;;;;4971460;28;19977;-72
2023/08/31 12:23:36;;;;;;;;;;;;;;;;;;4969176;28;19922;-71
2023/08/31 12:26:02;;;;;;;;;;;;;;;;;;4954245;28;19921;-70
2023/08/31 12:28:27;;;;;;;;;;;;;;;;;;4971059;28;19933;-70
2023/08/31 12:30:53;;;;;;;;;;;;;;;;;;4970753;28;19921;-69
2023/08/31 12:33:18;;;;;;;;;;;;;;;;;;4954863;28;19968;-70
2023/08/31 12:35:46;;;;;;;;;;;;;;;;;;4987990;28;19933;-70
2023/08/31 12:38:11;;;;;;;;;;;;;;;;;;4969413;28;19945;-70
2023/08/31 12:40:39;;;;;;;;;;;;;;;;;;4967691;28;19925;-69
2023/08/31 12:43:04;;;;;;;;;;;;;;;;;;4984937;28;19917;-70
2023/08/31 12:45:30;;;;;;;;;;;;;;;;;;4968512;28;19932;-70
2023/08/31 12:47:55;;;;;;;;;;;;;;;;;;4968320;28;19926;-71
2023/08/31 12:50:21;;;;;;;;;;;;;;;;;;4966228;28;19921;-69
2023/08/31 12:52:46;;;;;;;;;;;;;;;;;;4988187;28;19921;-70
2023/08/31 12:55:11;;;;;;;;;;;;;;;;;;4952317;28;20029;-69
2023/08/31 12:57:37;;;;;;;;;;;;;;;;;;4953682;28;19922;-71
2023/08/31 13:00:05;;;;;;;;;;;;;;;;;;4969729;28;20032;-70
2023/08/31 13:02:32;;;;;;;;;;;;;;;;;;4971237;28;20320;-70
2023/08/31 13:04:58;;;;;;;;;;;;;;;;;;4971215;28;19921;-70
2023/08/31 13:07:23;;;;;;;;;;;;;;;;;;4971354;28;19921;-72
2023/08/31 13:09:51;;;;;;;;;;;;;;;;;;4986894;28;20238;-75
2023/08/31 13:12:16;;;;;;;;;;;;;;;;;;4953884;28;20292;-71
2023/08/31 13:14:42;;;;;;;;;;;;;;;;;;4985516;28;19956;-70
2023/08/31 13:17:07;;;;;;;;;;;;;;;;;;4969281;28;20365;-70
2023/08/31 13:19:33;;;;;;;;;;;;;;;;;;4986370;28;19933;-70
2023/08/31 13:21:58;;;;;;;;;;;;;;;;;;4953211;28;19925;-71
2023/08/31 13:24:24;;;;;;;;;;;;;;;;;;4951074;28;19926;-70
2023/08/31 13:26:52;;;;;;;;;;;;;;;;;;4949701;28;20571;-69
2023/08/31 13:29:17;;;;;;;;;;;;;;;;;;4985208;28;19954;-69
2023/08/31 13:31:43;;;;;;;;;;;;;;;;;;4986024;28;19921;-68
2023/08/31 13:34:13;;;;;;;;;;;;;;;;;;4987846;28;19929;-73
2023/08/31 13:36:38;;;;;;;;;;;;;;;;;;4968876;28;19921;-73
2023/08/31 13:39:07;;;;;;;;;;;;;;;;;;4985397;28;19917;-72
2023/08/31 13:41:32;;;;;;;;;;;;;;;;;;4970385;28;20067;-73
2023/08/31 13:43:57;;;;;;;;;;;;;;;;;;4967144;28;19927;-73
2023/08/31 13:46:25;;;;;;;;;;;;;;;;;;4969790;28;19933;-75
2023/08/31 13:48:50;;;;;;;;;;;;;;;;;;4986639;28;19926;-74
2023/08/31 13:51:15;;;;;;;;;;;;;;;;;;4970817;28;19927;-75
2023/08/31 13:53:41;;;;;;;;;;;;;;;;;;4969968;28;19987;-72
2023/08/31 13:56:06;;;;;;;;;;;;;;;;;;4957773;28;19933;-72
2023/08/31 13:58:32;;;;;;;;;;;;;;;;;;4991758;28;19967;-73
2023/08/31 14:00:57;;;;;;;;;;;;;;;;;;4961609;28;20488;-77
2023/08/31 14:03:23;;;;;;;;;;;;;;;;;;4958539;28;19928;-70
2023/08/31 14:05:49;;;;;;;;;;;;;;;;;;4992350;28;20428;-73
2023/08/31 14:08:14;;;;;;;;;;;;;;;;;;4954607;28;19928;-73
2023/08/31 14:10:39;;;;;;;;;;;;;;;;;;4972488;28;19983;-73
2023/08/31 14:13:05;;;;;;;;;;;;;;;;;;4975224;28;19917;-71
2023/08/31 14:15:31;;;;;;;;;;;;;;;;;;4989443;28;19995;-72
2023/08/31 14:17:58;;;;;;;;;;;;;;;;;;4971035;28;19914;-74
2023/08/31 14:20:24;;;;;;;;;;;;;;;;;;4990505;28;19953;-71
2023/08/31 14:22:50;;;;;;;;;;;;;;;;;;4955022;28;20056;-73
2023/08/31 14:25:15;;;;;;;;;;;;;;;;;;4973555;28;19921;-72
2023/08/31 14:27:41;;;;;;;;;;;;;;;;;;4988994;28;19972;-73
2023/08/31 14:30:07;;;;;;;;;;;;;;;;;;4989060;28;19925;-73
2023/08/31 14:32:35;;;;;;;;;;;;;;;;;;4969379;28;19918;-77
2023/08/31 14:35:00;;;;;;;;;;;;;;;;;;4971995;28;19929;-72
2023/08/31 14:37:26;;;;;;;;;;;;;;;;;;4955743;28;20300;-74
2023/08/31 14:39:51;;;;;;;;;;;;;;;;;;4973910;28;19959;-70
2023/08/31 14:42:19;;;;;;;;;;;;;;;;;;4957823;28;20343;-73
2023/08/31 14:44:45;;;;;;;;;;;;;;;;;;4976133;28;20467;-73
2023/08/31 14:47:10;;;;;;;;;;;;;;;;;;4975770;28;20004;-77
2023/08/31 14:49:36;;;;;;;;;;;;;;;;;;4959267;28;19918;-72
2023/08/31 14:52:05;;;;;;;;;;;;;;;;;;4973775;28;20028;-70
2023/08/31 14:54:30;;;;;;;;;;;;;;;;;;4972363;28;19921;-70
2023/08/31 14:56:55;;;;;;;;;;;;;;;;;;4989361;28;20675;-72
2023/08/31 14:59:27;;;;;;;;;;;;;;;;;;4972517;28;19917;-73
2023/08/31 15:01:52;;;;;;;;;;;;;;;;;;4973781;28;19929;-73
2023/08/31 15:04:17;;;;;;;;;;;;;;;;;;4960774;28;19947;-71
2023/08/31 15:06:43;;;;;;;;;;;;;;;;;;4988826;28;19921;-70
2023/08/31 15:09:08;;;;;;;;;;;;;;;;;;4994231;28;19956;-70
2023/08/31 15:11:36;;;;;;;;;;;;;;;;;;4956894;28;19918;-72
2023/08/31 15:14:01;;;;;;;;;;;;;;;;;;4992348;28;19939;-72
2023/08/31 15:16:28;;;;;;;;;;;;;;;;;;4973009;28;20369;-70
2023/08/31 15:18:56;;;;;;;;;;;;;;;;;;4990829;28;20104;-70
2023/08/31 15:21:24;;;;;;;;;;;;;;;;;;4955020;28;19921;-71
2023/08/31 15:23:50;;;;;;;;;;;;;;;;;;4971477;28;19928;-73
2023/08/31 15:26:19;;;;;;;;;;;;;;;;;;4972536;28;19928;-73
2023/08/31 15:28:44;;;;;;;;;;;;;;;;;;4992809;28;20012;-71
2023/08/31 15:31:10;;;;;;;;;;;;;;;;;;4972767;28;20521;-70
2023/08/31 15:33:35;;;;;;;;;;;;;;;;;;4954965;28;19929;-73
2023/08/31 15:36:01;;;;;;;;;;;;;;;;;;4973400;28;19921;-71
2023/08/31 15:38:29;;;;;;;;;;;;;;;;;;4957191;28;19952;-68
2023/08/31 15:40:55;;;;;;;;;;;;;;;;;;4959714;28;19922;-71
2023/08/31 15:43:23;;;;;;;;;;;;;;;;;;4989338;28;19925;-74
2023/08/31 15:45:49;;;;;;;;;;;;;;;;;;4972272;28;19921;-73
2023/08/31 15:48:14;;;;;;;;;;;;;;;;;;4987692;28;19921;-69
2023/08/31 15:50:43;;;;;;;;;;;;;;;;;;4965963;28;19921;-71
2023/08/31 15:53:10;;;;;;;;;;;;;;;;;;4967070;28;19924;-72
2023/08/31 15:55:38;;;;;;;;;;;;;;;;;;4969701;28;20645;-74
2023/08/31 15:58:04;;;;;;;;;;;;;;;;;;4956352;28;19921;-72
2023/08/31 16:00:34;;;;;;;;;;;;;;;;;;4972648;28;20290;-71
2023/08/31 16:03:00;;;;;;;;;;;;;;;;;;4969423;28;19929;-72
2023/08/31 16:05:26;;;;;;;;;;;;;;;;;;4958004;28;19922;-75
2023/08/31 16:07:51;;;;;;;;;;;;;;;;;;4972046;28;19964;-75
2023/08/31 16:10:20;;;;;;;;;;;;;;;;;;4956156;28;19922;-68
2023/08/31 16:12:45;;;;;;;;;;;;;;;;;;4951319;28;19921;-71
2023/08/31 16:15:11;;;;;;;;;;;;;;;;;;4965960;28;20039;-71
2023/08/31 16:17:38;;;;;;;;;;;;;;;;;;4952352;28;20244;-69
2023/08/31 16:20:04;;;;;;;;;;;;;;;;;;4955267;28;19918;-70
2023/08/31 16:22:31;;;;;;;;;;;;;;;;;;4969977;28;19929;-72
2023/08/31 16:24:59;;;;;;;;;;;;;;;;;;4965999;28;19961;-68
2023/08/31 16:27:25;;;;;;;;;;;;;;;;;;4969558;28;20352;-72
2023/08/31 16:29:51;;;;;;;;;;;;;;;;;;4971230;28;20032;-72
2023/08/31 16:32:16;;;;;;;;;;;;;;;;;;4954036;28;19922;-69
2023/08/31 16:34:44;;;;;;;;;;;;;;;;;;4986398;28;19921;-68
2023/08/31 16:37:10;;;;;;;;;;;;;;;;;;4969431;28;20552;-69